Time;durP1;ratioP1;P1;durP2;ratioP2;P2;SDS_P1;SDS_P2;PMS_P1;PMS_P2;Temp;Humidity;BMP_temperature;BMP_pressure;BME280_temperature;BME280_humidity;BME280_pressure;Samples;Min_cycle;Max_cycle;Signal;HPM_P1;HPM_P2
2021/12/30 00:00:03;;;;;;;18.95;10.23;;;;;;;7.79;100.00;98103.09;10393926;28;20084;-79
2021/12/30 00:05:03;;;;;;;16.10;8.40;;;;;;;8.18;100.00;98110.28;10373739;28;20911;-79
2021/12/30 00:10:06;;;;;;;14.30;8.80;;;;;;;8.42;100.00;98117.91;10357754;28;20489;-78
2021/12/30 00:15:08;;;;;;;13.30;8.65;;;;;;;8.66;100.00;98131.63;10383753;28;20058;-78
2021/12/30 00:20:09;;;;;;;13.43;8.70;;;;;;;8.89;100.00;98139.53;10382097;28;20057;-82
2021/12/30 00:25:11;;;;;;;11.85;7.80;;;;;;;9.00;100.00;98144.25;10386484;28;20042;-77
2021/12/30 00:30:13;;;;;;;11.25;7.25;;;;;;;9.08;100.00;98166.75;10391686;28;20072;-79
2021/12/30 00:35:13;;;;;;;9.68;6.70;;;;;;;9.23;100.00;98176.19;10381916;28;20064;-79
2021/12/30 00:40:14;;;;;;;9.20;6.35;;;;;;;9.33;100.00;98170.53;10386196;28;20477;-79
2021/12/30 00:45:16;;;;;;;7.00;5.20;;;;;;;9.45;100.00;98194.00;10360710;28;20081;-78
2021/12/30 00:50:17;;;;;;;7.75;5.25;;;;;;;9.53;100.00;98193.19;10376458;28;20169;-78
2021/12/30 00:55:17;;;;;;;9.43;4.88;;;;;;;9.61;100.00;98195.06;10367666;28;20141;-79
2021/12/30 01:00:19;;;;;;;6.57;4.65;;;;;;;9.65;100.00;98198.69;10382858;28;20432;-78
2021/12/30 01:05:20;;;;;;;5.93;4.45;;;;;;;9.63;100.00;98212.41;10347732;28;20164;-79
2021/12/30 01:10:23;;;;;;;5.43;3.80;;;;;;;9.75;100.00;98222.47;10375199;28;20057;-79
2021/12/30 01:15:34;;;;;;;5.85;3.60;;;;;;;9.87;100.00;98214.53;10397494;28;20068;-79
2021/12/30 01:20:35;;;;;;;4.28;3.30;;;;;;;9.91;100.00;98223.53;10362850;28;20061;-78
2021/12/30 01:25:35;;;;;;;4.10;3.10;;;;;;;9.95;100.00;98234.41;10391242;28;20057;-79
2021/12/30 01:30:36;;;;;;;3.00;2.47;;;;;;;9.88;100.00;98237.59;10424846;28;20037;-81
2021/12/30 01:35:39;;;;;;;3.85;2.95;;;;;;;9.80;100.00;98253.69;10431827;28;20110;-83
2021/12/30 01:40:41;;;;;;;3.42;2.35;;;;;;;9.86;100.00;98271.16;10437343;28;20049;-84
2021/12/30 01:45:46;;;;;;;3.63;2.58;;;;;;;9.88;100.00;98277.00;10449578;28;20095;-78
2021/12/30 01:50:49;;;;;;;3.83;2.80;;;;;;;9.88;100.00;98282.38;10395066;28;20058;-78
2021/12/30 01:55:52;;;;;;;5.47;2.78;;;;;;;9.81;100.00;98292.78;10393009;28;20386;-78
2021/12/30 02:00:52;;;;;;;2.60;2.05;;;;;;;9.94;100.00;98291.81;10410982;28;20093;-77
2021/12/30 02:05:53;;;;;;;2.95;2.15;;;;;;;9.93;100.00;98325.88;10410217;28;20058;-77
2021/12/30 02:10:54;;;;;;;2.85;2.00;;;;;;;9.82;100.00;98338.03;10416063;28;20076;-78
2021/12/30 02:16:00;;;;;;;2.08;1.95;;;;;;;9.87;100.00;98335.16;10379050;28;20132;-78
2021/12/30 02:21:02;;;;;;;10.35;2.10;;;;;;;9.88;100.00;98339.47;10382389;28;20052;-77
2021/12/30 02:26:10;;;;;;;2.50;1.90;;;;;;;9.76;100.00;98346.53;10390598;28;20523;-82
2021/12/30 02:31:21;;;;;;;2.95;2.10;;;;;;;9.83;100.00;98371.78;10399599;28;20064;-77
2021/12/30 02:36:25;;;;;;;2.10;1.60;;;;;;;9.81;100.00;98373.97;10357978;28;20111;-76
2021/12/30 02:41:27;;;;;;;3.25;2.00;;;;;;;9.77;100.00;98378.38;10388906;28;20054;-77
2021/12/30 02:46:33;;;;;;;2.85;1.92;;;;;;;9.76;100.00;98376.03;10364082;28;20060;-76
2021/12/30 02:51:34;;;;;;;3.22;2.20;;;;;;;9.78;100.00;98376.50;10389464;28;20065;-77
2021/12/30 02:56:36;;;;;;;4.05;1.60;;;;;;;9.86;100.00;98381.84;10393006;28;20413;-77
2021/12/30 03:01:37;;;;;;;2.43;1.73;;;;;;;9.91;100.00;98383.59;10375472;28;20046;-78
2021/12/30 03:06:37;;;;;;;2.60;2.03;;;;;;;9.86;100.00;98397.94;10379544;28;20057;-82
2021/12/30 03:11:38;;;;;;;2.03;1.40;;;;;;;9.76;100.00;98411.66;10359375;28;20061;-80
2021/12/30 03:16:41;;;;;;;5.20;1.70;;;;;;;9.78;100.00;98411.34;10332226;28;20062;-77
2021/12/30 03:21:43;;;;;;;3.65;1.60;;;;;;;9.66;100.00;98425.34;10373943;28;20058;-77
2021/12/30 03:26:45;;;;;;;2.35;1.70;;;;;;;9.59;100.00;98446.47;10368168;28;20061;-77
2021/12/30 03:31:46;;;;;;;3.50;2.10;;;;;;;9.53;100.00;98451.19;10364129;28;20053;-77
2021/12/30 03:36:47;;;;;;;2.60;2.10;;;;;;;9.43;100.00;98472.91;10381398;28;20440;-77
2021/12/30 03:41:47;;;;;;;3.03;1.95;;;;;;;9.41;100.00;98467.84;10382266;28;20045;-76
2021/12/30 03:46:48;;;;;;;2.05;1.90;;;;;;;9.39;100.00;98474.63;10376962;28;20054;-77
2021/12/30 03:51:52;;;;;;;2.75;2.00;;;;;;;9.45;100.00;98502.06;10397264;28;20041;-78
2021/12/30 03:57:43;;;;;;;3.13;1.90;;;;;;;9.60;100.00;98506.97;10421957;28;20053;-78
2021/12/30 04:02:44;;;;;;;2.70;1.90;;;;;;;9.59;100.00;98513.44;10369730;28;20053;-79
2021/12/30 04:07:46;;;;;;;;;;;;;;;9.60;100.00;98513.16;10396643;28;20057;-79
2021/12/30 04:12:48;;;;;;;2.35;2.00;;;;;;;9.50;100.00;98510.72;10380816;28;20384;-79
2021/12/30 04:17:49;;;;;;;4.23;2.30;;;;;;;9.54;100.00;98519.75;10400719;28;20053;-84
2021/12/30 04:22:50;;;;;;;2.67;1.90;;;;;;;9.45;100.00;98521.59;10414083;28;20041;-79
2021/12/30 04:27:52;;;;;;;2.13;1.90;;;;;;;9.42;100.00;98530.28;10381102;28;20045;-78
2021/12/30 04:32:53;;;;;;;2.30;2.03;;;;;;;9.50;100.00;98534.06;10378418;28;20072;-77
2021/12/30 04:37:54;;;;;;;4.60;2.40;;;;;;;9.40;100.00;98538.59;10385731;28;20064;-77
2021/12/30 04:42:55;;;;;;;4.40;2.05;;;;;;;9.30;100.00;98540.75;10390679;28;20125;-78
2021/12/30 04:47:55;;;;;;;3.28;2.15;;;;;;;9.21;100.00;98553.31;10363142;28;20058;-77
2021/12/30 04:52:56;;;;;;;2.67;2.17;;;;;;;9.14;100.00;98548.38;10397540;28;20057;-77
2021/12/30 04:57:57;;;;;;;2.40;1.70;;;;;;;9.14;100.00;98572.47;10390575;28;20553;-81
2021/12/30 05:03:15;;;;;;;2.47;1.83;;;;;;;9.15;100.00;98579.44;10369287;28;20132;-80
2021/12/30 05:08:21;;;;;;;3.42;1.92;;;;;;;9.02;100.00;98582.97;10354934;28;20058;-79
2021/12/30 05:13:22;;;;;;;4.57;1.90;;;;;;;8.94;100.00;98587.16;10385179;28;20054;-78
2021/12/30 05:18:30;;;;;;;3.60;2.00;;;;;;;8.90;100.00;98593.44;10372292;28;20107;-78
2021/12/30 05:23:32;;;;;;;3.75;2.00;;;;;;;8.84;100.00;98584.72;10379302;28;20125;-78
2021/12/30 05:28:33;;;;;;;3.63;2.10;;;;;;;8.81;100.00;98580.78;10392000;28;20050;-77
2021/12/30 05:33:34;;;;;;;3.17;2.25;;;;;;;8.80;100.00;98589.91;10362332;28;20072;-80
2021/12/30 05:38:35;;;;;;;4.40;2.45;;;;;;;8.90;100.00;98596.09;10383921;28;20096;-78
2021/12/30 05:43:38;;;;;;;3.78;2.20;;;;;;;8.95;100.00;98617.38;10368893;28;20067;-79
2021/12/30 05:48:38;;;;;;;4.78;2.25;;;;;;;8.95;100.00;98628.88;10381361;28;20081;-78
2021/12/30 05:53:39;;;;;;;5.25;1.85;;;;;;;8.93;100.00;98649.03;10375282;28;20563;-83
2021/12/30 05:58:39;;;;;;;6.00;2.47;;;;;;;8.98;100.00;98655.06;10378767;28;20057;-77
2021/12/30 06:03:41;;;;;;;4.18;2.30;;;;;;;8.94;100.00;98653.28;10377785;28;20065;-81
2021/12/30 06:08:42;;;;;;;5.28;2.35;;;;;;;8.88;100.00;98655.31;10400247;28;20052;-77
2021/12/30 06:13:43;;;;;;;4.50;2.38;;;;;;;8.87;100.00;98651.03;10436949;28;20044;-79
2021/12/30 06:18:43;;;;;;;2.65;2.22;;;;;;;8.92;100.00;98658.16;10408625;28;20124;-80
2021/12/30 06:23:44;;;;;;;4.13;2.63;;;;;;;8.94;100.00;98656.75;10392934;28;20493;-79
2021/12/30 06:28:44;;;;;;;3.35;2.22;;;;;;;8.96;100.00;98659.94;10399968;28;20061;-78
2021/12/30 06:33:45;;;;;;;6.97;2.63;;;;;;;9.00;100.00;98668.94;10419914;28;20058;-82
2021/12/30 06:38:48;;;;;;;4.57;2.40;;;;;;;9.00;100.00;98658.22;10433666;28;20067;-81
2021/12/30 06:43:49;;;;;;;6.72;2.85;;;;;;;9.04;100.00;98653.03;10408616;28;20084;-77
2021/12/30 06:49:10;;;;;;;7.88;3.33;;;;;;;8.99;100.00;98650.50;10412434;28;20050;-78
2021/12/30 06:54:10;;;;;;;5.47;3.00;;;;;;;9.00;100.00;98655.56;10386714;28;20100;-78
2021/12/30 06:59:15;;;;;;;7.72;3.00;;;;;;;9.04;100.00;98661.09;10404565;28;20069;-79
2021/12/30 07:04:18;;;;;;;6.32;2.92;;;;;;;9.04;100.00;98669.91;10402797;28;20080;-80
2021/12/30 07:09:20;;;;;;;4.35;3.03;;;;;;;8.98;100.00;98673.81;10405406;28;20069;-78
2021/12/30 07:14:22;;;;;;;7.65;3.25;;;;;;;8.91;100.00;98675.31;10376463;28;20049;-78
2021/12/30 07:19:23;;;;;;;7.43;3.05;;;;;;;8.92;100.00;98685.72;10388713;28;20112;-78
2021/12/30 07:24:24;;;;;;;4.43;2.80;;;;;;;8.96;100.00;98685.88;10356422;28;20131;-78
2021/12/30 07:29:25;;;;;;;6.00;2.55;;;;;;;8.99;100.00;98694.13;10377555;28;20057;-77
2021/12/30 07:34:27;;;;;;;6.90;2.60;;;;;;;8.98;100.00;98697.13;10382269;28;20421;-77
2021/12/30 07:39:27;;;;;;;7.22;3.03;;;;;;;8.95;100.00;98703.06;10383060;28;20045;-78
2021/12/30 07:44:29;;;;;;;4.05;2.22;;;;;;;8.95;100.00;98703.06;10393645;28;20061;-80
2021/12/30 07:49:29;;;;;;;4.82;3.05;;;;;;;8.95;100.00;98706.50;10387835;28;20684;-79
2021/12/30 07:54:30;;;;;;;8.98;4.00;;;;;;;8.95;100.00;98713.75;10388076;28;20045;-79
2021/12/30 07:59:31;;;;;;;11.07;4.32;;;;;;;8.95;100.00;98725.25;10367999;28;20142;-79
2021/12/30 08:04:32;;;;;;;14.27;5.68;;;;;;;8.98;100.00;98722.00;10363172;28;20061;-77
2021/12/30 08:09:33;;;;;;;14.00;6.38;;;;;;;9.00;100.00;98710.97;10391431;28;20057;-76
2021/12/30 08:14:35;;;;;;;13.93;6.38;;;;;;;8.99;100.00;98701.38;10379852;28;20057;-80
2021/12/30 08:19:37;;;;;;;14.40;6.93;;;;;;;8.98;100.00;98708.63;10391657;28;20054;-78
2021/12/30 08:24:38;;;;;;;9.70;6.25;;;;;;;9.10;100.00;98710.75;10392788;28;20085;-82
2021/12/30 08:29:40;;;;;;;16.25;8.98;;;;;;;9.07;100.00;98717.50;10421999;28;20056;-77
2021/12/30 08:34:41;;;;;;;14.80;8.27;;;;;;;9.15;100.00;98707.97;10419224;28;20356;-79
2021/12/30 08:39:43;;;;;;;17.67;8.95;;;;;;;9.21;100.00;98706.75;10371260;28;20165;-77
2021/12/30 08:44:44;;;;;;;17.88;10.00;;;;;;;9.28;100.00;98707.13;10399661;28;20511;-79
2021/12/30 08:49:49;;;;;;;20.25;10.65;;;;;;;9.38;100.00;98714.13;10399618;28;20419;-79
2021/12/30 08:54:50;;;;;;;17.83;10.95;;;;;;;9.42;100.00;98717.78;10389084;28;20056;-79
2021/12/30 08:59:53;;;;;;;20.48;11.20;;;;;;;9.52;100.00;98719.44;10376353;28;20049;-79
2021/12/30 09:05:01;;;;;;;22.35;10.80;;;;;;;9.56;100.00;98720.41;10394789;28;20062;-80
2021/12/30 09:10:06;;;;;;;21.02;11.30;;;;;;;9.65;100.00;98722.03;10385261;28;20062;-83
2021/12/30 09:15:09;;;;;;;22.10;11.48;;;;;;;9.67;100.00;98727.88;10430192;28;20037;-80
2021/12/30 09:20:14;;;;;;;21.30;11.55;;;;;;;9.65;100.00;98724.72;10380720;28;20057;-79
2021/12/30 09:25:19;;;;;;;21.25;11.15;;;;;;;9.74;100.00;98722.09;10369604;28;20124;-79
2021/12/30 09:30:20;;;;;;;21.20;10.77;;;;;;;9.84;100.00;98719.16;10373763;28;20128;-81
2021/12/30 09:35:21;;;;;;;18.05;10.30;;;;;;;9.97;100.00;98720.97;10384605;28;20033;-81
2021/12/30 09:40:23;;;;;;;17.50;8.85;;;;;;;10.15;100.00;98729.09;10403053;28;20119;-79
2021/12/30 09:45:23;;;;;;;11.40;6.78;;;;;;;10.27;100.00;98741.97;10398363;28;20060;-78
2021/12/30 09:50:31;;;;;;;11.10;5.85;;;;;;;10.53;100.00;98750.91;10401948;28;20050;-77
2021/12/30 09:55:32;;;;;;;6.13;4.00;;;;;;;10.76;100.00;98752.41;10394725;28;20096;-81
2021/12/30 10:00:35;;;;;;;6.35;3.80;;;;;;;10.99;100.00;98744.25;10400490;28;20053;-81
2021/12/30 10:05:40;;;;;;;4.00;3.08;;;;;;;11.14;100.00;98746.47;10403750;28;20054;-79
2021/12/30 10:10:45;;;;;;;2.70;2.40;;;;;;;11.32;100.00;98747.25;10393986;28;20089;-80
2021/12/30 10:15:53;;;;;;;3.60;2.50;;;;;;;11.49;100.00;98749.94;10395868;28;20061;-79
2021/12/30 10:20:54;;;;;;;2.40;2.05;;;;;;;11.73;100.00;98757.53;10389972;28;20054;-80
2021/12/30 10:25:58;;;;;;;2.28;1.90;;;;;;;11.83;100.00;98748.38;10366733;28;20064;-80
2021/12/30 10:31:10;;;;;;;3.63;2.00;;;;;;;11.97;100.00;98757.03;10408016;28;20092;-80
2021/12/30 10:36:35;;;;;;;2.88;2.05;;;;;;;12.05;100.00;98750.06;10387332;28;20053;-78
2021/12/30 10:41:36;;;;;;;2.10;1.50;;;;;;;12.10;100.00;98756.06;10406679;28;20424;-79
2021/12/30 10:46:37;;;;;;;2.95;1.60;;;;;;;12.19;100.00;98764.91;10407522;28;20069;-77
2021/12/30 10:51:42;;;;;;;1.20;1.10;;;;;;;12.18;100.00;98749.09;10400408;28;20058;-79
2021/12/30 10:56:49;;;;;;;3.33;1.90;;;;;;;12.14;100.00;98746.22;10405670;28;20429;-79
2021/12/30 11:02:05;;;;;;;1.55;1.42;;;;;;;12.18;100.00;98747.19;10443636;28;20061;-79
2021/12/30 11:07:10;;;;;;;1.73;1.58;;;;;;;12.26;100.00;98756.34;10417943;28;20435;-77
2021/12/30 11:12:12;;;;;;;1.45;1.35;;;;;;;12.33;100.00;98751.22;10395097;28;20112;-78
2021/12/30 11:17:22;;;;;;;2.58;1.70;;;;;;;12.40;100.00;98742.66;10360043;28;20306;-78
2021/12/30 11:22:26;;;;;;;2.03;1.75;;;;;;;12.39;100.00;98749.16;10387247;28;20069;-80
2021/12/30 11:27:29;;;;;;;2.08;1.88;;;;;;;12.55;100.00;98742.13;10401361;28;20045;-79
2021/12/30 11:32:32;;;;;;;1.70;1.60;;;;;;;12.62;100.00;98736.22;10401585;28;20089;-79
2021/12/30 11:37:35;;;;;;;1.58;1.40;;;;;;;12.69;100.00;98729.22;10390542;28;20057;-79
2021/12/30 11:42:46;;;;;;;1.85;1.55;;;;;;;12.82;100.00;98720.13;10378284;28;20050;-82
2021/12/30 11:47:47;;;;;;;2.60;2.40;;;;;;;12.80;100.00;98719.66;10399237;28;20084;-79
2021/12/30 11:53:08;;;;;;;2.38;1.50;;;;;;;12.81;100.00;98729.31;10394811;28;20100;-82
2021/12/30 11:58:29;;;;;;;1.77;1.67;;;;;;;12.77;100.00;98738.38;10340444;28;20152;-79
2021/12/30 12:03:34;;;;;;;1.70;1.60;;;;;;;12.70;100.00;98730.78;10402657;28;20056;-78
2021/12/30 12:08:44;;;;;;;2.10;1.98;;;;;;;12.79;100.00;98728.84;10393941;28;20065;-78
2021/12/30 12:13:48;;;;;;;1.88;1.77;;;;;;;12.84;100.00;98719.00;10432964;28;20057;-79
2021/12/30 12:19:08;;;;;;;1.80;1.43;;;;;;;12.80;100.00;98713.47;10422130;28;20061;-78
2021/12/30 12:24:28;;;;;;;1.83;1.60;;;;;;;12.91;100.00;98728.16;10405368;28;20072;-77
2021/12/30 12:29:42;;;;;;;1.45;1.35;;;;;;;12.86;100.00;98722.16;10397233;28;20053;-79
2021/12/30 12:34:55;;;;;;;2.35;1.45;;;;;;;13.02;100.00;98728.56;10384746;28;20138;-79
2021/12/30 12:39:58;;;;;;;1.58;1.27;;;;;;;13.01;100.00;98713.50;10384117;28;20053;-79
2021/12/30 12:45:17;;;;;;;;;;;;;;;13.25;100.00;98713.66;10387365;28;20060;-78
2021/12/30 12:50:18;;;;;;;2.05;1.20;;;;;;;13.48;100.00;98694.44;10383102;28;19920;-77
2021/12/30 12:55:21;;;;;;;1.35;1.13;;;;;;;13.50;100.00;98692.19;10374963;28;20057;-79
2021/12/30 13:00:21;;;;;;;;;;;;;;;13.48;100.00;98705.22;10397172;28;20128;-78
2021/12/30 13:05:22;;;;;;;1.37;1.17;;;;;;;13.38;100.00;98717.22;10388214;28;20319;-78
2021/12/30 13:10:23;;;;;;;1.02;0.85;;;;;;;13.33;100.00;98725.47;10395714;28;20273;-79
2021/12/30 13:15:23;;;;;;;1.33;0.90;;;;;;;13.26;100.00;98720.63;10365517;28;20137;-78
2021/12/30 13:20:28;;;;;;;1.83;1.10;;;;;;;13.22;100.00;98732.41;10388012;28;20057;-78
2021/12/30 13:25:28;;;;;;;1.27;0.95;;;;;;;13.20;100.00;98740.03;10389314;28;20061;-80
2021/12/30 13:30:30;;;;;;;0.80;0.80;;;;;;;13.10;100.00;98746.56;10413341;28;20045;-78
2021/12/30 13:35:36;;;;;;;1.98;1.10;;;;;;;13.04;100.00;98743.25;10422698;28;20061;-79
2021/12/30 13:40:46;;;;;;;1.10;1.00;;;;;;;13.00;100.00;98736.97;10394875;28;20054;-79
2021/12/30 13:45:52;;;;;;;1.45;0.95;;;;;;;12.92;100.00;98745.09;10380826;28;20106;-79
2021/12/30 13:50:58;;;;;;;0.95;0.90;;;;;;;12.91;100.00;98747.00;10393769;28;20447;-79
2021/12/30 13:56:02;;;;;;;1.38;1.05;;;;;;;12.82;100.00;98741.66;10391124;28;20042;-79
2021/12/30 14:01:10;;;;;;;1.30;1.13;;;;;;;12.88;100.00;98755.72;10395831;28;20119;-80
2021/12/30 14:06:21;;;;;;;1.70;1.27;;;;;;;12.90;100.00;98756.22;10387379;28;20118;-78
2021/12/30 14:11:33;;;;;;;1.40;1.30;;;;;;;12.98;100.00;98752.66;10386533;28;20060;-80
2021/12/30 14:16:45;;;;;;;1.20;1.10;;;;;;;12.94;100.00;98767.91;10399550;28;20080;-79
2021/12/30 14:21:46;;;;;;;1.27;1.15;;;;;;;13.01;100.00;98767.38;10390203;28;20054;-79
2021/12/30 14:26:59;;;;;;;1.65;1.45;;;;;;;12.94;100.00;98770.59;10389851;28;20500;-78
2021/12/30 14:32:06;;;;;;;1.40;1.30;;;;;;;12.94;100.00;98773.28;10432494;28;20033;-80
2021/12/30 14:37:15;;;;;;;1.42;1.33;;;;;;;12.80;100.00;98778.09;10419162;28;20061;-79
2021/12/30 14:42:33;;;;;;;2.20;1.40;;;;;;;12.88;100.00;98771.88;10412143;28;20101;-79
2021/12/30 14:47:40;;;;;;;2.17;1.42;;;;;;;12.78;100.00;98781.13;10384856;28;20057;-79
2021/12/30 14:52:49;;;;;;;1.33;1.23;;;;;;;12.85;100.00;98787.91;10414434;28;20062;-79
2021/12/30 14:57:51;;;;;;;4.15;1.45;;;;;;;12.72;100.00;98779.75;10398740;28;20049;-79
2021/12/30 15:02:52;;;;;;;1.15;1.00;;;;;;;12.69;100.00;98791.16;10420224;28;20068;-80
2021/12/30 15:07:54;;;;;;;1.30;1.20;;;;;;;12.67;100.00;98800.69;10384867;28;20082;-80
2021/12/30 15:12:55;;;;;;;2.65;1.50;;;;;;;12.65;100.00;98805.59;10436088;28;20033;-79
2021/12/30 15:17:58;;;;;;;1.30;1.20;;;;;;;12.64;100.00;98812.09;10428624;28;20069;-78
2021/12/30 15:23:01;;;;;;;1.73;1.10;;;;;;;12.55;100.00;98827.50;10408516;28;20045;-79
2021/12/30 15:28:02;;;;;;;;;;;;;;;12.55;100.00;98822.91;10387919;28;20107;-78
2021/12/30 15:33:07;;;;;;;1.40;1.30;;;;;;;12.56;100.00;98837.16;10422146;28;19925;-79
2021/12/30 15:38:07;;;;;;;1.42;1.33;;;;;;;12.51;100.00;98836.22;10417281;28;20068;-81
2021/12/30 15:43:09;;;;;;;2.97;2.67;;;;;;;12.39;100.00;98840.69;10390047;28;20056;-79
2021/12/30 15:48:10;;;;;;;1.88;1.40;;;;;;;12.46;100.00;98847.16;10402538;28;20045;-79
2021/12/30 15:53:13;;;;;;;1.75;1.10;;;;;;;12.39;100.00;98851.44;10386948;28;20049;-78
2021/12/30 15:58:13;;;;;;;;;;;;;;;12.34;100.00;98852.41;10356372;28;20050;-78
2021/12/30 16:03:15;;;;;;;2.67;1.20;;;;;;;12.24;100.00;98866.19;10372788;28;19921;-80
2021/12/30 16:08:17;;;;;;;1.95;1.40;;;;;;;12.31;100.00;98866.50;10386940;28;20343;-79
2021/12/30 16:13:20;;;;;;;2.97;1.92;;;;;;;12.28;100.00;98867.16;10360465;28;20080;-78
2021/12/30 16:18:22;;;;;;;2.10;1.88;;;;;;;12.22;100.00;98863.84;10406416;28;20045;-79
2021/12/30 16:23:23;;;;;;;1.40;1.17;;;;;;;12.27;100.00;98867.47;10400889;28;20087;-78
2021/12/30 16:28:27;;;;;;;1.70;1.50;;;;;;;12.42;100.00;98865.06;10377819;28;20192;-78
2021/12/30 16:33:28;;;;;;;2.67;1.80;;;;;;;12.33;100.00;98882.34;10364956;28;20413;-78
2021/12/30 16:38:28;;;;;;;10.45;4.15;;;;;;;12.21;100.00;98902.63;10391864;28;20056;-80
2021/12/30 16:43:30;;;;;;;10.75;5.38;;;;;;;12.23;100.00;98910.38;10370247;28;20053;-78
2021/12/30 16:48:31;;;;;;;2.60;1.90;;;;;;;12.14;100.00;98904.19;10393619;28;20091;-79
2021/12/30 16:53:34;;;;;;;4.67;2.10;;;;;;;12.15;100.00;98903.09;10412174;28;20057;-80
2021/12/30 16:58:38;;;;;;;0.85;0.82;;;;;;;12.22;100.00;98895.34;10389677;28;20049;-81
2021/12/30 17:03:44;;;;;;;1.23;1.00;;;;;;;12.10;100.00;98908.66;10384689;28;20053;-80
2021/12/30 17:08:44;;;;;;;7.15;1.35;;;;;;;12.00;100.00;98923.22;10378865;28;20536;-80
2021/12/30 17:13:47;;;;;;;4.25;1.70;;;;;;;11.87;100.00;98935.69;10376443;28;20069;-81
2021/12/30 17:18:51;;;;;;;1.77;1.30;;;;;;;11.88;100.00;98939.16;10387448;28;20077;-83
2021/12/30 17:23:51;;;;;;;4.63;2.50;;;;;;;11.95;100.00;98934.13;10408466;28;20410;-80
2021/12/30 17:28:52;;;;;;;3.17;1.85;;;;;;;11.94;100.00;98944.09;10391449;28;20053;-80
2021/12/30 17:33:54;;;;;;;3.22;1.70;;;;;;;11.96;100.00;98935.69;10403523;28;20121;-79
2021/12/30 17:38:56;;;;;;;;;;;;;;;11.94;100.00;98925.25;10391574;28;20064;-78
2021/12/30 17:43:56;;;;;;;2.40;1.60;;;;;;;11.94;100.00;98938.69;10391120;28;19921;-79
2021/12/30 17:48:58;;;;;;;1.92;1.63;;;;;;;11.87;100.00;98937.59;10398198;28;20054;-79
2021/12/30 17:53:59;;;;;;;2.50;1.83;;;;;;;11.84;100.00;98938.22;10412535;28;20105;-79
2021/12/30 17:59:02;;;;;;;1.60;1.40;;;;;;;11.85;100.00;98935.22;10409899;28;20042;-78
2021/12/30 18:04:03;;;;;;;1.33;1.17;;;;;;;11.81;100.00;98938.84;10401583;28;20053;-78
2021/12/30 18:09:04;;;;;;;1.05;0.95;;;;;;;11.85;100.00;98942.50;10389890;28;20089;-79
2021/12/30 18:14:05;;;;;;;1.65;1.10;;;;;;;11.92;100.00;98950.88;10367076;28;20053;-78
2021/12/30 18:19:10;;;;;;;1.67;1.02;;;;;;;11.90;100.00;98955.81;10403228;28;20776;-80
2021/12/30 18:24:12;;;;;;;2.50;1.30;;;;;;;11.88;100.00;98960.69;10387658;28;20072;-80
2021/12/30 18:29:13;;;;;;;1.67;1.50;;;;;;;11.88;100.00;98963.38;10356910;28;20667;-79
2021/12/30 18:34:14;;;;;;;2.08;1.42;;;;;;;11.78;100.00;98960.94;10395968;28;20053;-80
2021/12/30 18:39:14;;;;;;;2.85;1.10;;;;;;;11.81;100.00;98963.06;10394602;28;20049;-79
2021/12/30 18:44:15;;;;;;;1.42;1.23;;;;;;;11.79;100.00;98971.41;10406766;28;20069;-79
2021/12/30 18:49:16;;;;;;;1.83;1.33;;;;;;;11.78;100.00;98967.13;10409021;28;20058;-79
2021/12/30 18:54:17;;;;;;;1.70;1.27;;;;;;;11.82;100.00;98968.13;10434238;28;20038;-79
2021/12/30 18:59:18;;;;;;;3.15;1.42;;;;;;;11.80;100.00;98959.59;10429292;28;20045;-80
2021/12/30 19:04:21;;;;;;;2.95;1.40;;;;;;;11.79;100.00;98974.09;10385150;28;20053;-79
2021/12/30 19:09:24;;;;;;;2.97;1.35;;;;;;;11.70;100.00;98984.03;10394202;28;20046;-79
2021/12/30 19:14:25;;;;;;;2.65;1.35;;;;;;;11.72;100.00;98984.53;10386936;28;20072;-81
2021/12/30 19:19:26;;;;;;;2.67;1.20;;;;;;;11.63;100.00;98992.56;10422022;28;20066;-81
2021/12/30 19:24:26;;;;;;;3.97;1.73;;;;;;;11.54;100.00;98991.75;10429934;28;20041;-80
2021/12/30 19:29:30;;;;;;;2.53;1.58;;;;;;;11.67;100.00;98998.09;10423094;28;20045;-79
2021/12/30 19:34:33;;;;;;;1.45;1.20;;;;;;;11.62;100.00;98993.69;10423585;28;20045;-80
2021/12/30 19:39:35;;;;;;;1.50;1.10;;;;;;;11.65;100.00;98998.41;10376930;28;20122;-79
2021/12/30 19:44:36;;;;;;;1.05;0.90;;;;;;;11.57;100.00;99001.88;10370383;28;20111;-79
2021/12/30 19:49:37;;;;;;;1.42;1.30;;;;;;;11.55;100.00;99006.78;10390361;28;20066;-81
2021/12/30 19:54:39;;;;;;;2.05;1.40;;;;;;;11.58;100.00;99010.72;10419110;28;20054;-83
2021/12/30 19:59:39;;;;;;;1.90;1.52;;;;;;;11.52;100.00;99018.16;10418751;28;20045;-80
2021/12/30 20:04:43;;;;;;;1.67;1.25;;;;;;;11.49;100.00;99013.38;10421368;28;20087;-81
2021/12/30 20:09:44;;;;;;;1.95;1.40;;;;;;;11.44;100.00;99016.22;10388457;28;20053;-79
2021/12/30 20:14:45;;;;;;;2.35;1.30;;;;;;;11.50;100.00;99014.97;10367253;28;20131;-79
2021/12/30 20:19:45;;;;;;;1.60;1.40;;;;;;;11.48;100.00;99021.75;10375838;28;20068;-77
2021/12/30 20:24:46;;;;;;;7.15;3.10;;;;;;;11.46;100.00;99024.75;10392756;28;20500;-77
2021/12/30 20:29:48;;;;;;;1.60;1.17;;;;;;;11.47;100.00;99023.66;10366720;28;20096;-79
2021/12/30 20:34:48;;;;;;;2.70;1.30;;;;;;;11.40;100.00;99026.00;10379798;28;20085;-78
2021/12/30 20:39:49;;;;;;;2.42;1.23;;;;;;;11.44;100.00;99023.50;10375839;28;20084;-81
2021/12/30 20:44:49;;;;;;;2.10;1.40;;;;;;;11.51;100.00;99023.81;10394091;28;20075;-80
2021/12/30 20:49:50;;;;;;;2.60;1.33;;;;;;;11.42;100.00;99025.69;10410076;28;20052;-78
2021/12/30 20:54:53;;;;;;;5.03;1.95;;;;;;;11.47;100.00;99022.88;10383559;28;20075;-80
2021/12/30 20:59:54;;;;;;;3.03;1.92;;;;;;;11.46;100.00;99032.84;10351636;28;20053;-79
2021/12/30 21:04:54;;;;;;;3.45;1.88;;;;;;;11.36;100.00;99033.91;10405857;28;20053;-80
2021/12/30 21:09:55;;;;;;;2.42;1.70;;;;;;;11.40;100.00;99036.75;10423441;28;20057;-79
2021/12/30 21:14:55;;;;;;;3.00;1.80;;;;;;;11.35;100.00;99050.34;10410632;28;20056;-79
2021/12/30 21:19:58;;;;;;;3.67;2.20;;;;;;;11.27;100.00;99051.88;10364324;28;20049;-80
2021/12/30 21:24:59;;;;;;;3.85;2.03;;;;;;;11.26;100.00;99052.19;10413218;28;20058;-82
2021/12/30 21:30:02;;;;;;;2.42;1.70;;;;;;;11.28;100.00;99050.75;10404828;28;20064;-79
2021/12/30 21:35:04;;;;;;;3.00;1.60;;;;;;;11.31;100.00;99050.13;10395176;28;20149;-83
2021/12/30 21:40:06;;;;;;;13.70;9.80;;;;;;;11.31;100.00;99060.88;10388977;28;20440;-79
2021/12/30 21:45:08;;;;;;;3.15;2.22;;;;;;;11.37;100.00;99054.28;10365106;28;20145;-81
2021/12/30 21:50:10;;;;;;;3.10;2.10;;;;;;;11.33;100.00;99057.88;10394398;28;20086;-81
2021/12/30 21:55:14;;;;;;;3.85;2.58;;;;;;;11.42;100.00;99056.03;10384895;28;20042;-83
2021/12/30 22:00:17;;;;;;;3.22;2.08;;;;;;;11.43;100.00;99062.19;10392167;28;20057;-80
2021/12/30 22:05:23;;;;;;;2.08;1.70;;;;;;;11.35;100.00;99061.88;10409848;28;20680;-79
2021/12/30 22:10:25;;;;;;;3.30;2.63;;;;;;;11.37;100.00;99073.09;10413045;28;20076;-78
2021/12/30 22:15:26;;;;;;;2.03;1.80;;;;;;;11.47;100.00;99071.25;10397372;28;20058;-82
2021/12/30 22:20:26;;;;;;;2.60;1.90;;;;;;;11.48;100.00;99087.06;10401478;28;20128;-83
2021/12/30 22:25:31;;;;;;;1.90;1.70;;;;;;;11.43;100.00;99081.84;10427560;28;20088;-83
2021/12/30 22:30:32;;;;;;;2.45;1.80;;;;;;;11.35;100.00;99086.06;10442575;28;20068;-85
2021/12/30 22:35:34;;;;;;;2.13;1.50;;;;;;;11.34;100.00;99097.91;10396273;28;20057;-79
2021/12/30 22:40:35;;;;;;;2.20;1.60;;;;;;;11.45;100.00;99095.75;10381697;28;20057;-79
2021/12/30 22:45:36;;;;;;;2.08;1.88;;;;;;;11.45;100.00;99093.06;10391236;28;20138;-80
2021/12/30 22:50:36;;;;;;;2.38;1.48;;;;;;;11.34;100.00;99099.81;10399313;28;20053;-82
2021/12/30 22:55:37;;;;;;;2.00;1.63;;;;;;;11.32;100.00;99094.72;10439536;28;20113;-86
2021/12/30 23:00:52;;;;;;;2.72;1.67;;;;;;;11.38;100.00;99104.25;10433788;28;20081;-79
2021/12/30 23:05:53;;;;;;;5.03;2.85;;;;;;;11.40;100.00;99102.03;10396222;28;20581;-79
2021/12/30 23:10:54;;;;;;;2.63;1.77;;;;;;;11.43;100.00;99091.78;10392362;28;20638;-82
2021/12/30 23:15:55;;;;;;;3.53;2.30;;;;;;;11.44;100.00;99094.19;10397543;28;20084;-81
2021/12/30 23:20:57;;;;;;;2.63;2.10;;;;;;;11.33;100.00;99106.25;10402891;28;20064;-80